createdAt,value
2017-11-25T00:00:39.434Z,66.90
2017-11-25T00:01:39.412Z,67.80
2017-11-25T00:02:39.398Z,69.70
2017-11-25T00:03:39.377Z,70.30
2017-11-25T00:04:39.355Z,68.90
2017-11-25T00:05:39.333Z,68.20
2017-11-25T00:06:39.317Z,77.00
2017-11-25T00:07:39.292Z,70.40
2017-11-25T00:08:39.275Z,63.10
2017-11-25T00:09:39.252Z,62.20
2017-11-25T00:10:39.244Z,55.80
2017-11-25T00:11:39.214Z,61.30
2017-11-25T00:12:39.195Z,56.70
2017-11-25T00:13:39.175Z,59.40
2017-11-25T00:14:39.156Z,56.80
2017-11-25T00:15:39.151Z,55.10
2017-11-25T00:16:39.119Z,52.30
2017-11-25T00:17:39.096Z,52.10
2017-11-25T00:18:39.090Z,59.10
2017-11-25T00:19:39.058Z,57.10
2017-11-25T00:20:39.053Z,59.40
2017-11-25T00:21:39.025Z,64.70
2017-11-25T00:22:39.002Z,64.30
2017-11-25T00:23:38.976Z,61.80
2017-11-25T00:24:38.964Z,60.50
2017-11-25T00:25:38.938Z,61.80
2017-11-25T00:26:38.917Z,70.60
2017-11-25T00:27:38.896Z,60.40
2017-11-25T00:28:38.875Z,56.20
2017-11-25T00:29:38.857Z,59.80
2017-11-25T00:30:38.833Z,60.00
2017-11-25T00:31:38.824Z,58.50
2017-11-25T00:32:38.794Z,63.40
2017-11-25T00:33:38.777Z,53.50
2017-11-25T00:34:38.757Z,55.50
2017-11-25T00:35:38.737Z,53.80
2017-11-25T00:36:38.717Z,59.30
2017-11-25T00:37:38.699Z,60.70
2017-11-25T00:38:38.679Z,62.10
2017-11-25T00:39:38.673Z,64.40
2017-11-25T00:40:38.646Z,58.40
2017-11-25T00:41:38.622Z,55.00
2017-11-25T00:42:38.601Z,57.10
2017-11-25T00:43:38.580Z,58.50
2017-11-25T00:44:38.565Z,62.20
2017-11-25T00:45:38.542Z,57.80
2017-11-25T00:46:38.526Z,55.90
2017-11-25T00:47:38.502Z,55.60
2017-11-25T00:48:38.498Z,55.00
2017-11-25T00:49:38.467Z,59.80
2017-11-25T00:50:38.446Z,68.70
2017-11-25T00:51:38.426Z,63.10
2017-11-25T00:52:38.407Z,59.80
2017-11-25T00:53:38.387Z,59.90
2017-11-25T00:54:38.366Z,58.20
2017-11-25T00:55:38.346Z,59.10
2017-11-25T00:56:38.323Z,66.30
2017-11-25T00:57:38.307Z,77.50
2017-11-25T00:58:38.287Z,75.50
2017-11-25T00:59:38.269Z,74.20
2017-11-25T01:00:38.249Z,69.10
2017-11-25T01:01:38.227Z,73.80
2017-11-25T01:02:38.211Z,65.70
2017-11-25T01:03:38.186Z,64.10
2017-11-25T01:04:38.168Z,62.60
2017-11-25T01:05:38.145Z,74.80
2017-11-25T01:06:38.126Z,71.90
2017-11-25T01:07:38.105Z,68.90
2017-11-25T01:08:38.091Z,79.10
2017-11-25T01:09:38.066Z,84.60
2017-11-25T01:10:38.047Z,87.20
2017-11-25T01:11:38.023Z,76.00
2017-11-25T01:12:38.016Z,75.70
2017-11-25T01:13:37.983Z,66.40
2017-11-25T01:14:37.965Z,60.60
2017-11-25T01:15:37.955Z,60.40
2017-11-25T01:16:37.936Z,65.90
2017-11-25T01:17:37.913Z,67.30
2017-11-25T01:18:37.896Z,66.10
2017-11-25T01:19:37.874Z,65.40
2017-11-25T01:20:37.855Z,73.30
2017-11-25T01:21:37.835Z,76.80
2017-11-25T01:22:37.816Z,76.80
2017-11-25T01:23:37.794Z,72.50
2017-11-25T01:24:37.773Z,62.20
2017-11-25T01:25:37.757Z,72.50
2017-11-25T01:26:37.735Z,74.40
2017-11-25T01:27:37.717Z,72.00
2017-11-25T01:28:37.694Z,61.70
2017-11-25T01:29:37.673Z,63.30
2017-11-25T01:30:37.654Z,58.90
2017-11-25T01:31:37.631Z,55.70
2017-11-25T01:32:37.614Z,57.80
2017-11-25T01:33:37.593Z,60.50
2017-11-25T01:34:37.584Z,55.10
2017-11-25T01:35:37.565Z,61.80
2017-11-25T01:36:37.538Z,59.30
2017-11-25T01:37:37.513Z,61.60
2017-11-25T01:38:37.493Z,55.70
2017-11-25T01:39:37.477Z,55.30
2017-11-25T01:40:37.463Z,57.10
2017-11-25T01:41:37.434Z,53.40
2017-11-25T01:42:37.416Z,74.00
2017-11-25T01:43:37.394Z,77.30
2017-11-25T01:44:37.378Z,88.80
2017-11-25T01:45:37.354Z,67.10
2017-11-25T01:46:37.335Z,75.90
2017-11-25T01:47:37.321Z,65.60
2017-11-25T01:48:37.312Z,64.70
2017-11-25T01:49:37.277Z,66.00
2017-11-25T01:50:37.264Z,74.10
2017-11-25T01:51:37.233Z,70.80
2017-11-25T01:52:37.218Z,72.20
2017-11-25T01:53:37.196Z,58.70
2017-11-25T01:54:37.179Z,59.20
2017-11-25T01:55:37.162Z,54.00
2017-11-25T01:56:37.145Z,54.10
2017-11-25T01:57:37.116Z,62.80
2017-11-25T01:58:37.100Z,58.60
2017-11-25T01:59:37.076Z,59.20
2017-11-25T02:00:37.066Z,59.30
2017-11-25T02:01:37.034Z,62.30
2017-11-25T02:02:37.015Z,56.50
2017-11-25T02:03:36.998Z,66.10
2017-11-25T02:04:36.985Z,65.70
2017-11-25T02:05:36.964Z,68.80
2017-11-25T02:06:36.939Z,62.90
2017-11-25T02:07:36.924Z,65.50
2017-11-25T02:08:36.897Z,66.30
2017-11-25T02:09:36.885Z,68.10
2017-11-25T02:10:36.864Z,71.10
2017-11-25T02:11:36.846Z,67.00
2017-11-25T02:12:36.835Z,79.40
2017-11-25T02:13:36.810Z,64.60
2017-11-25T02:14:36.781Z,59.60
2017-11-25T02:15:36.764Z,69.60
2017-11-25T02:16:36.742Z,79.90
2017-11-25T02:17:36.723Z,79.20
2017-11-25T02:18:36.703Z,70.90
2017-11-25T02:19:36.683Z,71.80
2017-11-25T02:20:36.662Z,75.30
2017-11-25T02:21:36.645Z,66.50
2017-11-25T02:22:36.623Z,60.10
2017-11-25T02:23:36.853Z,69.00
2017-11-25T02:24:36.594Z,70.90
2017-11-25T02:25:36.564Z,74.40
2017-11-25T02:26:36.544Z,65.00
2017-11-25T02:27:36.532Z,58.20
2017-11-25T02:28:36.534Z,67.20
2017-11-25T02:29:36.484Z,68.70
2017-11-25T02:30:36.464Z,60.50
2017-11-25T02:31:36.446Z,69.20
2017-11-25T02:32:36.427Z,64.50
2017-11-25T02:33:36.404Z,68.40
2017-11-25T02:34:36.387Z,62.50
2017-11-25T02:35:36.366Z,53.70
2017-11-25T02:36:36.344Z,72.30
2017-11-25T02:37:36.338Z,71.40
2017-11-25T02:38:36.304Z,75.30
2017-11-25T02:39:36.284Z,78.90
2017-11-25T02:40:36.264Z,76.30
2017-11-25T02:41:36.243Z,65.10
2017-11-25T02:42:36.229Z,56.20
2017-11-25T02:43:36.207Z,62.80
2017-11-25T02:44:36.190Z,59.20
2017-11-25T02:45:36.163Z,60.70
2017-11-25T02:46:36.144Z,58.80
2017-11-25T02:47:36.126Z,58.80
2017-11-25T02:48:36.110Z,72.50
2017-11-25T02:49:36.088Z,70.40
2017-11-25T02:50:36.069Z,70.70
2017-11-25T02:51:36.054Z,72.80
2017-11-25T02:52:36.032Z,76.60
2017-11-25T02:53:36.007Z,73.90
2017-11-25T02:54:35.987Z,61.70
2017-11-25T02:55:35.967Z,67.10
2017-11-25T02:56:35.945Z,60.80
2017-11-25T02:57:35.937Z,73.60
2017-11-25T02:58:35.924Z,69.70
2017-11-25T02:59:35.897Z,68.60
2017-11-25T03:00:35.874Z,74.30
2017-11-25T03:01:35.849Z,69.50
2017-11-25T03:02:35.836Z,71.40
2017-11-25T03:03:35.809Z,73.40
2017-11-25T03:04:35.787Z,76.80
2017-11-25T03:05:35.769Z,75.90
2017-11-25T03:06:35.757Z,69.30
2017-11-25T03:07:35.728Z,66.80
2017-11-25T03:08:35.715Z,81.40
2017-11-25T03:09:35.704Z,66.40
2017-11-25T03:10:35.665Z,74.20
2017-11-25T03:11:35.648Z,70.30
2017-11-25T03:12:35.628Z,70.80
2017-11-25T03:13:35.607Z,74.50
2017-11-25T03:14:35.593Z,72.50
2017-11-25T03:15:35.568Z,71.60
2017-11-25T03:16:35.550Z,76.10
2017-11-25T03:17:35.535Z,76.40
2017-11-25T03:18:35.520Z,68.50
2017-11-25T03:19:35.495Z,60.70
2017-11-25T03:20:35.474Z,75.40
2017-11-25T03:21:35.450Z,72.10
2017-11-25T03:22:35.440Z,66.70
2017-11-25T03:23:35.412Z,74.00
2017-11-25T03:24:35.394Z,67.00
2017-11-25T03:25:35.376Z,66.50
2017-11-25T03:26:35.355Z,68.90
2017-11-25T03:27:35.333Z,74.20
2017-11-25T03:28:35.317Z,66.80
2017-11-25T03:29:35.308Z,67.50
2017-11-25T03:30:35.275Z,68.10
2017-11-25T03:31:35.248Z,59.00
2017-11-25T03:32:35.242Z,63.20
2017-11-25T03:33:35.209Z,62.10
2017-11-25T03:34:35.193Z,59.70
2017-11-25T03:35:35.171Z,64.90
2017-11-25T03:36:35.156Z,60.00
2017-11-25T03:37:35.135Z,56.80
2017-11-25T03:38:35.115Z,55.40
2017-11-25T03:39:35.093Z,54.10
2017-11-25T03:40:35.074Z,52.40
2017-11-25T03:41:35.052Z,54.50
2017-11-25T03:42:35.034Z,54.30
2017-11-25T03:43:35.016Z,47.10
2017-11-25T03:44:34.993Z,50.50
2017-11-25T03:45:34.975Z,51.50
2017-11-25T03:46:34.953Z,55.90
2017-11-25T03:47:34.932Z,55.30
2017-11-25T03:48:34.916Z,50.00
2017-11-25T03:49:34.893Z,47.90
2017-11-25T03:50:34.876Z,49.40
2017-11-25T03:51:34.864Z,45.20
2017-11-25T03:52:34.836Z,41.60
2017-11-25T03:53:34.815Z,45.80
2017-11-25T03:54:34.795Z,46.70
2017-11-25T03:55:34.783Z,45.90
2017-11-25T03:56:34.759Z,42.30
2017-11-25T03:57:34.735Z,44.90
2017-11-25T03:58:34.713Z,45.40
2017-11-25T03:59:34.695Z,45.80
2017-11-25T04:00:34.674Z,44.60
2017-11-25T04:01:34.655Z,44.20
2017-11-25T04:02:34.635Z,41.40
2017-11-25T04:03:34.616Z,45.00
2017-11-25T04:04:34.595Z,44.90
2017-11-25T04:05:34.577Z,42.90
2017-11-25T04:06:34.565Z,42.40
2017-11-25T04:07:34.538Z,39.80
2017-11-25T04:08:34.516Z,41.70
2017-11-25T04:09:34.494Z,41.60
2017-11-25T04:10:34.473Z,43.90
2017-11-25T04:11:34.455Z,40.10
2017-11-25T04:12:34.438Z,46.40
2017-11-25T04:13:34.423Z,46.20
2017-11-25T04:14:34.393Z,40.90
2017-11-25T04:15:34.373Z,43.40
2017-11-25T04:16:34.358Z,40.00
2017-11-25T04:17:34.334Z,42.00
2017-11-25T04:18:34.316Z,44.00
2017-11-25T04:19:34.294Z,43.10
2017-11-25T04:20:34.279Z,45.00
2017-11-25T04:21:34.255Z,40.70
2017-11-25T04:22:34.236Z,43.50
2017-11-25T04:23:34.216Z,43.40
2017-11-25T04:24:34.199Z,45.20
2017-11-25T04:25:34.174Z,46.10
2017-11-25T04:26:34.155Z,48.50
2017-11-25T04:27:34.134Z,44.70
2017-11-25T04:28:34.123Z,41.50
2017-11-25T04:29:34.095Z,43.00
2017-11-25T04:30:34.074Z,42.10
2017-11-25T04:31:34.057Z,42.70
2017-11-25T04:32:34.034Z,43.40
2017-11-25T04:33:34.035Z,41.10
2017-11-25T04:34:33.993Z,46.40
2017-11-25T04:35:33.980Z,41.50
2017-11-25T04:36:33.953Z,43.30
2017-11-25T04:37:33.945Z,46.50
2017-11-25T04:38:33.916Z,45.10
2017-11-25T04:39:33.895Z,44.10
2017-11-25T04:40:33.876Z,44.10
2017-11-25T04:41:33.861Z,45.90
2017-11-25T04:42:33.836Z,44.70
2017-11-25T04:43:33.823Z,42.80
2017-11-25T04:44:33.801Z,44.60
2017-11-25T04:45:33.773Z,41.20
2017-11-25T04:46:33.761Z,43.90
2017-11-25T04:47:33.734Z,43.30
2017-11-25T04:48:33.716Z,45.70
2017-11-25T04:49:33.698Z,44.30
2017-11-25T04:50:33.676Z,42.70
2017-11-25T04:51:33.680Z,41.40
2017-11-25T04:52:33.633Z,42.20
2017-11-25T04:53:33.618Z,43.80
2017-11-25T04:54:33.592Z,41.90
2017-11-25T04:55:33.579Z,42.20
2017-11-25T04:56:33.563Z,40.20
2017-11-25T04:57:33.545Z,41.30
2017-11-25T04:58:33.517Z,42.70
2017-11-25T04:59:33.499Z,42.70
2017-11-25T05:00:33.478Z,44.60
2017-11-25T05:01:33.458Z,44.40
2017-11-25T05:02:33.436Z,45.00
2017-11-25T05:03:33.425Z,42.80
2017-11-25T05:04:33.407Z,45.80
2017-11-25T05:05:33.382Z,43.20
2017-11-25T05:06:33.363Z,41.20
2017-11-25T05:07:33.369Z,43.90
2017-11-25T05:08:33.315Z,47.40
2017-11-25T05:09:33.297Z,46.30
2017-11-25T05:10:33.277Z,44.00
2017-11-25T05:11:33.263Z,45.00
2017-11-25T05:12:33.243Z,44.00
2017-11-25T05:13:33.215Z,41.00
2017-11-25T05:14:33.198Z,48.50
2017-11-25T05:15:33.186Z,43.90
2017-11-25T05:16:33.161Z,43.80
2017-11-25T05:17:33.142Z,43.60
2017-11-25T05:18:33.120Z,46.80
2017-11-25T05:19:33.099Z,46.80
2017-11-25T05:20:33.086Z,45.90
2017-11-25T05:21:33.060Z,47.30
2017-11-25T05:22:33.043Z,46.60
2017-11-25T05:23:33.015Z,44.70
2017-11-25T05:24:33.006Z,44.50
2017-11-25T05:25:32.985Z,43.00
2017-11-25T05:26:32.964Z,43.20
2017-11-25T05:27:32.936Z,42.70
2017-11-25T05:28:32.916Z,48.30
2017-11-25T05:29:32.894Z,43.40
2017-11-25T05:30:32.876Z,42.90
2017-11-25T05:31:32.859Z,48.50
2017-11-25T05:32:32.841Z,44.70
2017-11-25T05:33:32.814Z,42.80
2017-11-25T05:34:32.794Z,44.10
2017-11-25T05:35:32.774Z,43.30
2017-11-25T05:36:32.761Z,45.70
2017-11-25T05:37:32.734Z,45.00
2017-11-25T05:38:32.715Z,48.40
2017-11-25T05:39:32.694Z,43.50
2017-11-25T05:40:32.674Z,44.40
2017-11-25T05:41:32.653Z,45.70
2017-11-25T05:42:32.634Z,46.50
2017-11-25T05:43:32.616Z,44.70
2017-11-25T05:44:32.594Z,44.80
2017-11-25T05:45:32.577Z,49.70
2017-11-25T05:46:32.553Z,41.80
2017-11-25T05:47:32.534Z,40.60
2017-11-25T05:48:32.516Z,41.80
2017-11-25T05:49:32.501Z,40.90
2017-11-25T05:50:32.471Z,39.80
2017-11-25T05:51:32.460Z,36.20
2017-11-25T05:52:32.447Z,37.60
2017-11-25T05:53:32.415Z,37.90
2017-11-25T05:54:32.394Z,34.20
2017-11-25T05:55:32.375Z,31.80
2017-11-25T05:56:32.352Z,31.60
2017-11-25T05:57:32.334Z,30.00
2017-11-25T05:58:32.344Z,28.10
2017-11-25T05:59:32.294Z,29.50
2017-11-25T06:00:32.277Z,29.00
2017-11-25T06:01:32.253Z,25.60
2017-11-25T06:02:32.245Z,25.10
2017-11-25T06:03:32.214Z,27.10
2017-11-25T06:04:32.193Z,24.50
2017-11-25T06:05:32.176Z,22.60
2017-11-25T06:06:32.150Z,23.20
2017-11-25T06:07:32.132Z,23.10
2017-11-25T06:08:32.111Z,23.40
2017-11-25T06:09:32.094Z,23.90
2017-11-25T06:10:32.072Z,24.40
2017-11-25T06:11:32.054Z,24.80
2017-11-25T06:12:32.031Z,24.10
2017-11-25T06:13:32.012Z,23.60
2017-11-25T06:14:31.995Z,23.20
2017-11-25T06:15:31.973Z,25.00
2017-11-25T06:16:31.955Z,22.40
2017-11-25T06:17:31.932Z,22.40
2017-11-25T06:18:31.909Z,23.30
2017-11-25T06:19:31.889Z,26.10
2017-11-25T06:20:31.868Z,23.70
2017-11-25T06:21:31.863Z,23.00
2017-11-25T06:22:31.830Z,23.60
2017-11-25T06:23:31.809Z,25.70
2017-11-25T06:24:31.793Z,22.20
2017-11-25T06:25:31.771Z,22.50
2017-11-25T06:26:31.754Z,22.20
2017-11-25T06:27:31.734Z,20.20
2017-11-25T06:28:31.718Z,21.70
2017-11-25T06:29:31.693Z,18.40
2017-11-25T06:30:31.667Z,16.30
2017-11-25T06:31:31.644Z,17.00
2017-11-25T06:32:31.627Z,16.70
2017-11-25T06:33:31.605Z,17.30
2017-11-25T06:34:31.588Z,15.90
2017-11-25T06:35:31.564Z,17.10
2017-11-25T06:36:31.544Z,15.10
2017-11-25T06:37:31.524Z,16.00
2017-11-25T06:38:31.502Z,14.40
2017-11-25T06:39:31.488Z,14.20
2017-11-25T06:40:31.464Z,12.80
2017-11-25T06:41:31.447Z,15.20
2017-11-25T06:42:31.423Z,12.60
2017-11-25T06:43:31.404Z,12.90
2017-11-25T06:44:31.384Z,13.80
2017-11-25T06:45:31.414Z,12.10
2017-11-25T06:46:31.350Z,15.00
2017-11-25T06:47:31.324Z,12.20
2017-11-25T06:48:31.305Z,13.70
2017-11-25T06:49:31.330Z,13.00
2017-11-25T06:50:31.260Z,13.50
2017-11-25T06:51:31.255Z,10.40
2017-11-25T06:52:31.226Z,13.50
2017-11-25T06:53:31.255Z,9.70
2017-11-25T06:54:31.185Z,10.00
2017-11-25T06:55:31.216Z,10.00
2017-11-25T06:56:31.142Z,11.30
2017-11-25T06:57:31.126Z,11.10
2017-11-25T06:58:31.108Z,9.00
2017-11-25T06:59:31.197Z,9.20
2017-11-25T07:00:31.065Z,9.00
2017-11-25T07:01:31.046Z,9.10
2017-11-25T07:02:31.032Z,9.00
2017-11-25T07:03:31.066Z,10.80
2017-11-25T07:04:30.985Z,8.60
2017-11-25T07:05:30.963Z,8.20
2017-11-25T07:06:30.937Z,9.10
2017-11-25T07:07:30.972Z,8.90
2017-11-25T07:08:30.898Z,7.40
2017-11-25T07:09:30.882Z,8.20
2017-11-25T07:10:30.853Z,7.60
2017-11-25T07:11:30.884Z,6.70
2017-11-25T07:12:30.816Z,7.70
2017-11-25T07:13:30.845Z,7.00
2017-11-25T07:14:30.776Z,8.80
2017-11-25T07:15:30.852Z,7.50
2017-11-25T07:16:30.733Z,5.40
2017-11-25T07:17:30.723Z,6.40
2017-11-25T07:18:30.715Z,6.90
2017-11-25T07:19:30.733Z,6.10
2017-11-25T07:20:30.656Z,6.30
2017-11-25T07:21:30.636Z,5.90
2017-11-25T07:22:30.624Z,7.60
2017-11-25T07:23:30.595Z,5.20
2017-11-25T07:24:30.576Z,6.10
2017-11-25T07:25:30.566Z,5.60
2017-11-25T07:26:30.533Z,6.50
2017-11-25T07:27:30.516Z,5.40
2017-11-25T07:28:30.493Z,5.50
2017-11-25T07:29:30.476Z,5.40
2017-11-25T07:30:30.456Z,4.40
2017-11-25T07:31:30.434Z,6.10
2017-11-25T07:32:30.408Z,5.00
2017-11-25T07:33:30.401Z,6.60
2017-11-25T07:34:30.375Z,5.10
2017-11-25T07:35:30.344Z,4.80
2017-11-25T07:36:30.338Z,6.20
2017-11-25T07:37:30.305Z,4.10
2017-11-25T07:38:30.284Z,5.30
2017-11-25T07:39:30.266Z,5.60
2017-11-25T07:40:30.249Z,4.90
2017-11-25T07:41:30.225Z,5.90
2017-11-25T07:42:30.207Z,6.00
2017-11-25T07:43:30.186Z,4.90
2017-11-25T07:44:30.165Z,4.40
2017-11-25T07:45:30.146Z,5.00
2017-11-25T07:46:30.121Z,5.20
2017-11-25T07:47:30.104Z,4.90
2017-11-25T07:48:30.081Z,5.50
2017-11-25T07:49:30.063Z,5.90
2017-11-25T07:50:30.045Z,8.70
2017-11-25T07:51:30.018Z,7.70
2017-11-25T07:52:30.002Z,8.50
2017-11-25T07:53:29.981Z,7.80
2017-11-25T07:54:29.964Z,9.80
2017-11-25T07:55:29.937Z,8.70
2017-11-25T07:56:29.924Z,10.70
2017-11-25T07:57:29.894Z,13.90
2017-11-25T07:58:29.875Z,10.50
2017-11-25T07:59:29.856Z,10.60
2017-11-25T08:00:29.836Z,9.60
2017-11-25T08:01:29.817Z,13.80
2017-11-25T08:02:29.794Z,10.20
2017-11-25T08:03:29.776Z,10.60
2017-11-25T08:04:29.765Z,12.80
2017-11-25T08:05:29.743Z,11.30
2017-11-25T08:06:29.716Z,12.80
2017-11-25T08:07:29.692Z,14.00
2017-11-25T08:08:29.673Z,13.20
2017-11-25T08:09:29.668Z,12.10
2017-11-25T08:10:29.635Z,14.30
2017-11-25T08:11:29.606Z,13.20
2017-11-25T08:12:29.590Z,15.80
2017-11-25T08:13:29.565Z,13.40
2017-11-25T08:14:29.541Z,13.70
2017-11-25T08:15:29.525Z,17.00
2017-11-25T08:16:29.503Z,16.70
2017-11-25T08:17:29.483Z,16.40
2017-11-25T08:18:29.463Z,14.80
2017-11-25T08:19:29.447Z,14.70
2017-11-25T08:20:29.418Z,15.90
2017-11-25T08:21:29.499Z,14.70
2017-11-25T08:22:29.386Z,14.80
2017-11-25T08:23:29.359Z,14.20
2017-11-25T08:24:29.342Z,17.20
2017-11-25T08:25:29.424Z,13.50
2017-11-25T08:26:29.299Z,12.20
2017-11-25T08:27:29.279Z,12.00
2017-11-25T08:28:29.254Z,14.10
2017-11-25T08:29:29.250Z,13.00
2017-11-25T08:30:29.215Z,14.50
2017-11-25T08:31:29.202Z,14.10
2017-11-25T08:32:29.173Z,13.90
2017-11-25T08:33:29.174Z,15.00
2017-11-25T08:34:29.135Z,14.60
2017-11-25T08:35:29.124Z,15.90
2017-11-25T08:36:29.125Z,17.90
2017-11-25T08:37:29.084Z,15.40
2017-11-25T08:38:29.052Z,16.50
2017-11-25T08:39:29.035Z,15.40
2017-11-25T08:40:29.012Z,17.20
2017-11-25T08:41:29.001Z,16.30
2017-11-25T08:42:28.973Z,16.10
2017-11-25T08:43:28.962Z,20.40
2017-11-25T08:44:28.934Z,17.10
2017-11-25T08:45:28.920Z,17.80
2017-11-25T08:46:28.895Z,16.90
2017-11-25T08:47:28.884Z,17.50
2017-11-25T08:48:28.855Z,16.50
2017-11-25T08:49:28.842Z,19.50
2017-11-25T08:50:28.814Z,16.30
2017-11-25T08:51:28.847Z,19.30
2017-11-25T08:52:28.774Z,17.00
2017-11-25T08:53:28.755Z,16.70
2017-11-25T08:54:28.735Z,14.30
2017-11-25T08:55:28.716Z,16.70
2017-11-25T08:56:28.696Z,16.10
2017-11-25T08:57:28.677Z,19.50
2017-11-25T08:58:28.658Z,18.50
2017-11-25T08:59:28.686Z,15.80
2017-11-25T09:00:28.620Z,15.60
2017-11-25T09:01:28.593Z,14.30
2017-11-25T09:02:28.589Z,17.30
2017-11-25T09:03:28.559Z,16.00
2017-11-25T09:04:28.535Z,16.80
2017-11-25T09:05:28.519Z,17.30
2017-11-25T09:06:28.496Z,19.60
2017-11-25T09:07:28.475Z,18.90
2017-11-25T09:08:28.459Z,19.60
2017-11-25T09:09:28.431Z,19.30
2017-11-25T09:10:28.416Z,20.20
2017-11-25T09:11:28.400Z,18.70
2017-11-25T09:12:28.375Z,18.00
2017-11-25T09:13:28.352Z,17.60
2017-11-25T09:14:28.335Z,18.90
2017-11-25T09:15:28.319Z,17.60
2017-11-25T09:16:28.296Z,20.90
2017-11-25T09:17:28.277Z,23.20
2017-11-25T09:18:28.257Z,20.90
2017-11-25T09:19:28.237Z,20.50
2017-11-25T09:20:28.216Z,25.60
2017-11-25T09:21:28.292Z,22.50
2017-11-25T09:22:28.177Z,22.70
2017-11-25T09:23:28.153Z,24.80
2017-11-25T09:24:28.136Z,23.40
2017-11-25T09:25:28.129Z,23.00
2017-11-25T09:26:28.094Z,24.30
2017-11-25T09:27:28.076Z,21.70
2017-11-25T09:28:28.061Z,23.30
2017-11-25T09:29:28.034Z,25.60
2017-11-25T09:30:28.015Z,23.30
2017-11-25T09:31:27.994Z,26.10
2017-11-25T09:32:27.984Z,21.30
2017-11-25T09:33:27.961Z,20.60
2017-11-25T09:34:27.939Z,19.90
2017-11-25T09:35:27.916Z,23.70
2017-11-25T09:36:27.894Z,22.30
2017-11-25T09:37:27.874Z,24.70
2017-11-25T09:38:27.859Z,24.00
2017-11-25T09:39:27.834Z,22.60
2017-11-25T09:40:27.817Z,20.10
2017-11-25T09:41:27.795Z,20.10
2017-11-25T09:42:27.775Z,20.10
2017-11-25T09:43:27.756Z,21.60
2017-11-25T09:44:27.746Z,19.90
2017-11-25T09:45:27.720Z,19.80
2017-11-25T09:46:27.704Z,20.70
2017-11-25T09:47:27.694Z,21.50
2017-11-25T09:48:27.657Z,21.40
2017-11-25T09:49:27.648Z,20.50
2017-11-25T09:50:27.633Z,20.70
2017-11-25T09:51:27.600Z,20.90
2017-11-25T09:52:27.585Z,18.70
2017-11-25T09:53:27.565Z,17.80
2017-11-25T09:54:27.542Z,18.80
2017-11-25T09:55:27.520Z,21.10
2017-11-25T09:56:27.502Z,18.30
2017-11-25T09:57:27.488Z,19.80
2017-11-25T09:58:27.460Z,42.00
2017-11-25T09:59:27.451Z,21.90
2017-11-25T10:00:27.426Z,19.60
2017-11-25T10:01:27.405Z,18.10
2017-11-25T10:02:27.380Z,17.50
2017-11-25T10:03:27.365Z,18.60
2017-11-25T10:04:27.342Z,16.50
2017-11-25T10:05:27.323Z,17.60
2017-11-25T10:06:27.315Z,16.80
2017-11-25T10:07:27.285Z,17.00
2017-11-25T10:08:27.267Z,13.40
2017-11-25T10:09:27.248Z,14.60
2017-11-25T10:10:27.229Z,14.20
2017-11-25T10:11:27.202Z,17.10
2017-11-25T10:12:27.182Z,14.40
2017-11-25T10:13:27.185Z,12.60
2017-11-25T10:14:27.146Z,13.70
2017-11-25T10:15:27.135Z,13.10
2017-11-25T10:16:27.108Z,11.80
2017-11-25T10:17:27.089Z,12.20
2017-11-25T10:18:27.064Z,13.50
2017-11-25T10:19:27.049Z,14.60
2017-11-25T10:20:27.023Z,12.20
2017-11-25T10:21:27.018Z,12.80
2017-11-25T10:22:26.998Z,14.10
2017-11-25T10:23:26.965Z,11.90
2017-11-25T10:24:26.962Z,12.90
2017-11-25T10:25:26.927Z,11.20
2017-11-25T10:26:26.925Z,13.10
2017-11-25T10:27:26.885Z,12.60
2017-11-25T10:28:26.877Z,13.40
2017-11-25T10:29:26.858Z,12.10
2017-11-25T10:30:26.828Z,14.10
2017-11-25T10:31:26.804Z,12.10
2017-11-25T10:32:26.785Z,13.70
2017-11-25T10:33:26.775Z,11.10
2017-11-25T10:34:26.750Z,11.40
2017-11-25T10:35:26.726Z,11.50
2017-11-25T10:36:26.717Z,9.90
2017-11-25T10:37:26.685Z,12.80
2017-11-25T10:38:26.667Z,11.10
2017-11-25T10:39:26.648Z,12.00
2017-11-25T10:40:26.635Z,11.70
2017-11-25T10:41:26.613Z,11.70
2017-11-25T10:42:26.592Z,14.50
2017-11-25T10:43:26.576Z,10.70
2017-11-25T10:44:26.549Z,13.50
2017-11-25T10:45:26.553Z,10.70
2017-11-25T10:46:26.517Z,12.00
2017-11-25T10:47:26.495Z,15.00
2017-11-25T10:48:26.476Z,24.20
2017-11-25T10:49:26.492Z,12.20
2017-11-25T10:50:26.447Z,13.80
2017-11-25T10:51:26.435Z,11.60
2017-11-25T10:52:26.398Z,14.50
2017-11-25T10:53:26.377Z,10.20
2017-11-25T10:54:26.358Z,11.90
2017-11-25T10:55:26.346Z,11.00
2017-11-25T10:56:26.319Z,19.90
2017-11-25T10:57:26.304Z,13.40
2017-11-25T10:58:26.287Z,12.80
2017-11-25T10:59:26.281Z,11.10
2017-11-25T11:00:26.247Z,11.20
2017-11-25T11:01:26.224Z,9.40
2017-11-25T11:02:26.206Z,11.30
2017-11-25T11:03:26.188Z,10.80
2017-11-25T11:04:26.178Z,9.10
2017-11-25T11:05:26.144Z,8.60
2017-11-25T11:06:26.148Z,8.80
2017-11-25T11:07:26.114Z,8.80
2017-11-25T11:08:26.097Z,9.70
2017-11-25T11:09:26.075Z,10.50
2017-11-25T11:10:26.064Z,8.00
2017-11-25T11:11:26.040Z,7.30
2017-11-25T11:12:26.024Z,7.80
2017-11-25T11:13:26.002Z,8.80
2017-11-25T11:14:25.986Z,7.20
2017-11-25T11:15:25.979Z,6.70
2017-11-25T11:16:25.954Z,6.40
2017-11-25T11:17:25.935Z,9.90
2017-11-25T11:18:25.923Z,7.20
2017-11-25T11:19:25.904Z,7.60
2017-11-25T11:20:25.892Z,5.70
2017-11-25T11:21:25.865Z,6.80
2017-11-25T11:22:25.851Z,7.20
2017-11-25T11:23:25.834Z,8.40
2017-11-25T11:24:25.839Z,8.40
2017-11-25T11:25:25.818Z,7.60
2017-11-25T11:26:25.796Z,7.60
2017-11-25T11:27:25.779Z,8.30
2017-11-25T11:28:25.761Z,8.90
2017-11-25T11:29:25.741Z,10.00
2017-11-25T11:30:25.728Z,33.30
2017-11-25T11:31:25.721Z,11.60
2017-11-25T11:32:25.696Z,8.60
2017-11-25T11:33:25.683Z,8.10
2017-11-25T11:34:25.667Z,7.00
2017-11-25T11:35:25.655Z,9.10
2017-11-25T11:36:25.641Z,7.20
2017-11-25T11:37:25.625Z,8.20
2017-11-25T11:38:25.605Z,8.30
2017-11-25T11:39:25.648Z,8.70
2017-11-25T11:40:25.578Z,6.90
2017-11-25T11:41:25.579Z,6.10
2017-11-25T11:42:25.555Z,7.30
2017-11-25T11:43:25.547Z,8.10
2017-11-25T11:44:25.526Z,6.50
2017-11-25T11:45:25.511Z,6.50
2017-11-25T11:46:25.495Z,6.60
2017-11-25T11:47:25.487Z,6.40
2017-11-25T11:48:25.472Z,8.10
2017-11-25T11:49:25.461Z,7.90
2017-11-25T11:50:25.447Z,6.40
2017-11-25T11:51:25.436Z,7.30
2017-11-25T11:52:25.421Z,7.90
2017-11-25T11:53:25.416Z,6.10
2017-11-25T11:54:25.402Z,9.00
2017-11-25T11:55:25.386Z,7.80
2017-11-25T11:56:25.366Z,6.90
2017-11-25T11:57:25.355Z,8.60
2017-11-25T11:58:25.345Z,7.10
2017-11-25T11:59:25.478Z,9.10
2017-11-25T12:00:25.321Z,7.40
2017-11-25T12:01:25.355Z,9.70
2017-11-25T12:02:25.292Z,7.30
2017-11-25T12:03:25.334Z,7.40
2017-11-25T12:04:25.277Z,8.40
2017-11-25T12:05:25.305Z,7.90
2017-11-25T12:06:25.247Z,8.60
2017-11-25T12:07:25.236Z,5.60
2017-11-25T12:08:25.226Z,9.30
2017-11-25T12:09:25.205Z,8.20
2017-11-25T12:10:25.214Z,5.70
2017-11-25T12:11:25.184Z,6.70
2017-11-25T12:12:25.174Z,6.10
2017-11-25T12:13:25.154Z,5.80
2017-11-25T12:14:25.145Z,6.30
2017-11-25T12:15:25.140Z,6.10
2017-11-25T12:16:25.118Z,6.10
2017-11-25T12:17:25.106Z,4.80
2017-11-25T12:18:25.095Z,5.70
2017-11-25T12:19:25.078Z,6.40
2017-11-25T12:20:25.068Z,5.90
2017-11-25T12:21:25.045Z,7.10
2017-11-25T12:22:25.031Z,6.80
2017-11-25T12:23:25.022Z,8.10
2017-11-25T12:24:25.011Z,7.00
2017-11-25T12:25:25.007Z,7.00
2017-11-25T12:26:24.982Z,7.00
2017-11-25T12:27:24.966Z,5.60
2017-11-25T12:28:24.953Z,7.90
2017-11-25T12:29:24.937Z,5.70
2017-11-25T12:30:24.939Z,6.20
2017-11-25T12:31:24.917Z,5.50
2017-11-25T12:32:24.903Z,6.60
2017-11-25T12:33:24.882Z,6.90
2017-11-25T12:34:24.874Z,7.00
2017-11-25T12:35:24.905Z,5.70
2017-11-25T12:36:24.845Z,4.50
2017-11-25T12:37:24.828Z,5.90
2017-11-25T12:38:24.813Z,7.50
2017-11-25T12:39:24.796Z,10.00
2017-11-25T12:40:24.796Z,5.50
2017-11-25T12:41:24.762Z,6.10
2017-11-25T12:42:24.752Z,6.60
2017-11-25T12:43:24.740Z,6.00
2017-11-25T12:44:24.735Z,7.30
2017-11-25T12:45:24.707Z,7.60
2017-11-25T12:46:24.695Z,6.80
2017-11-25T12:47:24.679Z,9.70
2017-11-25T12:48:24.657Z,6.90
2017-11-25T12:49:24.637Z,5.90
2017-11-25T12:50:24.621Z,5.70
2017-11-25T12:51:24.616Z,5.60
2017-11-25T12:52:24.591Z,9.30
2017-11-25T12:53:24.577Z,7.20
2017-11-25T12:54:24.565Z,7.70
2017-11-25T12:55:24.546Z,6.30
2017-11-25T12:56:24.525Z,7.20
2017-11-25T12:57:24.511Z,5.80
2017-11-25T12:58:24.494Z,6.80